createdAt,value
2018-04-10T00:00:38.633Z,13.09
2018-04-10T00:01:12.648Z,13.09
2018-04-10T00:02:12.852Z,13.08
2018-04-10T00:03:12.629Z,13.08
2018-04-10T00:04:12.841Z,13.08
2018-04-10T00:05:12.755Z,13.07
2018-04-10T00:06:12.753Z,13.07
2018-04-10T00:07:12.641Z,13.06
2018-04-10T00:08:12.645Z,13.04
2018-04-10T00:09:12.680Z,13.03
2018-04-10T00:10:12.691Z,13.03
2018-04-10T00:11:12.685Z,13.03
2018-04-10T00:12:12.697Z,13.03
2018-04-10T00:13:12.642Z,13.00
2018-04-10T00:14:12.719Z,12.99
2018-04-10T00:15:12.713Z,12.99
2018-04-10T00:16:12.731Z,12.98
2018-04-10T00:17:12.723Z,12.98
2018-04-10T00:18:12.730Z,12.96
2018-04-10T00:19:12.743Z,12.94
2018-04-10T00:20:12.641Z,12.90
2018-04-10T00:21:12.755Z,12.89
2018-04-10T00:22:12.641Z,12.90
2018-04-10T00:23:12.772Z,12.89
2018-04-10T00:24:12.674Z,12.87
2018-04-10T00:25:12.684Z,12.86
2018-04-10T00:26:12.656Z,12.86
2018-04-10T00:27:12.657Z,12.86
2018-04-10T00:28:12.698Z,12.85
2018-04-10T00:29:12.704Z,12.87
2018-04-10T00:30:12.821Z,12.88
2018-04-10T00:31:12.721Z,12.89
2018-04-10T00:32:12.738Z,12.89
2018-04-10T00:33:12.845Z,12.90
2018-04-10T00:34:31.467Z,12.92
2018-04-10T00:35:12.750Z,12.94
2018-04-10T00:36:12.748Z,12.94
2018-04-10T00:37:12.774Z,12.94
2018-04-10T00:38:12.665Z,12.95
2018-04-10T00:39:12.665Z,12.97
2018-04-10T00:40:12.745Z,12.96
2018-04-10T00:41:12.674Z,12.96
2018-04-10T00:42:12.693Z,12.97
2018-04-10T00:43:14.262Z,12.99
2018-04-10T00:44:12.704Z,13.01
2018-04-10T00:45:12.881Z,13.03
2018-04-10T00:46:12.737Z,13.03
2018-04-10T00:47:12.682Z,13.03
2018-04-10T00:48:12.765Z,13.02
2018-04-10T00:49:12.674Z,13.02
2018-04-10T00:50:12.677Z,13.01
2018-04-10T00:51:12.692Z,13.03
2018-04-10T00:52:12.701Z,13.05
2018-04-10T00:53:12.877Z,13.04
2018-04-10T00:54:12.665Z,13.04
2018-04-10T00:55:13.747Z,13.02
2018-04-10T00:56:12.678Z,12.99
2018-04-10T00:57:12.810Z,12.99
2018-04-10T00:58:12.707Z,12.99
2018-04-10T00:59:12.735Z,12.98
2018-04-10T01:00:31.644Z,12.98
2018-04-10T01:01:12.748Z,12.99
2018-04-10T01:02:12.741Z,13.00
2018-04-10T01:03:12.765Z,13.02
2018-04-10T01:04:12.749Z,13.01
2018-04-10T01:05:12.773Z,13.02
2018-04-10T01:06:12.771Z,13.02
2018-04-10T01:07:12.765Z,13.02
2018-04-10T01:08:12.781Z,13.01
2018-04-10T01:09:12.694Z,12.99
2018-04-10T01:10:12.688Z,13.01
2018-04-10T01:11:12.800Z,13.01
2018-04-10T01:12:12.698Z,12.99
2018-04-10T01:13:12.681Z,12.99
2018-04-10T01:14:12.710Z,12.98
2018-04-10T01:15:12.723Z,12.98
2018-04-10T01:16:12.731Z,12.97
2018-04-10T01:17:12.726Z,12.98
2018-04-10T01:18:13.597Z,12.97
2018-04-10T01:19:12.681Z,12.98
2018-04-10T01:20:12.850Z,12.98
2018-04-10T01:21:12.693Z,12.99
2018-04-10T01:22:12.679Z,12.98
2018-04-10T01:23:12.881Z,12.98
2018-04-10T01:24:12.686Z,12.96
2018-04-10T01:25:12.776Z,12.94
2018-04-10T01:26:12.799Z,12.92
2018-04-10T01:27:12.696Z,12.89
2018-04-10T01:28:12.811Z,12.87
2018-04-10T01:29:12.716Z,12.87
2018-04-10T01:30:12.834Z,12.86
2018-04-10T01:31:12.687Z,12.84
2018-04-10T01:32:12.737Z,12.85
2018-04-10T01:33:12.848Z,12.85
2018-04-10T01:34:12.720Z,12.86
2018-04-10T01:35:12.745Z,12.86
2018-04-10T01:36:12.766Z,12.87
2018-04-10T01:37:12.680Z,12.85
2018-04-10T01:38:12.882Z,12.88
2018-04-10T01:39:12.782Z,12.88
2018-04-10T01:40:12.771Z,12.89
2018-04-10T01:41:12.688Z,12.89
2018-04-10T01:42:12.809Z,12.89
2018-04-10T01:43:12.811Z,12.89
2018-04-10T01:44:12.713Z,12.89
2018-04-10T01:45:12.767Z,12.90
2018-04-10T01:46:12.701Z,12.91
2018-04-10T01:47:12.733Z,12.93
2018-04-10T01:48:12.850Z,12.92
2018-04-10T01:49:12.745Z,12.92
2018-04-10T01:50:12.760Z,12.93
2018-04-10T01:51:12.710Z,12.94
2018-04-10T01:52:13.381Z,12.95
2018-04-10T01:53:12.774Z,12.96
2018-04-10T01:54:12.697Z,12.96
2018-04-10T01:55:12.784Z,12.98
2018-04-10T01:56:12.797Z,12.99
2018-04-10T01:57:12.713Z,12.98
2018-04-10T01:58:12.712Z,12.98
2018-04-10T01:59:12.730Z,12.98
2018-04-10T02:00:31.909Z,12.96
2018-04-10T02:01:12.829Z,12.96
2018-04-10T02:02:12.741Z,12.96
2018-04-10T02:03:12.749Z,12.95
2018-04-10T02:04:12.748Z,12.96
2018-04-10T02:05:12.758Z,12.94
2018-04-10T02:06:12.790Z,12.94
2018-04-10T02:07:12.769Z,12.92
2018-04-10T02:10:13.318Z,12.88
2018-04-10T02:11:13.330Z,12.86
2018-04-10T02:12:13.213Z,12.83
2018-04-10T02:13:13.227Z,12.82
2018-04-10T02:14:13.337Z,12.78
2018-04-10T02:15:13.329Z,12.75
2018-04-10T02:16:13.346Z,12.71
2018-04-10T02:17:13.250Z,12.70
2018-04-10T02:18:13.197Z,12.67
2018-04-10T02:19:15.480Z,12.66
2018-04-10T02:20:13.257Z,12.66
2018-04-10T02:21:13.227Z,12.65
2018-04-10T02:22:13.286Z,12.65
2018-04-10T02:23:13.401Z,12.64
2018-04-10T02:24:13.205Z,12.62
2018-04-10T02:25:13.306Z,12.60
2018-04-10T02:26:13.409Z,12.59
2018-04-10T02:27:13.326Z,12.59
2018-04-10T02:28:13.233Z,12.59
2018-04-10T02:29:13.202Z,12.59
2018-04-10T02:30:13.250Z,12.60
2018-04-10T02:31:13.261Z,12.60
2018-04-10T02:32:13.225Z,12.58
2018-04-10T02:33:13.257Z,12.55
2018-04-10T02:34:13.267Z,12.54
2018-04-10T02:35:13.373Z,12.53
2018-04-10T02:36:13.376Z,12.52
2018-04-10T02:37:13.237Z,12.52
2018-04-10T02:38:13.278Z,12.50
2018-04-10T02:39:13.309Z,12.50
2018-04-10T02:40:32.025Z,12.47
2018-04-10T02:41:13.321Z,12.46
2018-04-10T02:42:13.329Z,12.45
2018-04-10T02:43:13.328Z,12.44
2018-04-10T02:44:13.218Z,12.44
2018-04-10T02:45:13.254Z,12.44
2018-04-10T02:46:13.245Z,12.43
2018-04-10T02:47:13.249Z,12.44
2018-04-10T02:48:13.269Z,12.46
2018-04-10T02:49:13.265Z,12.45
2018-04-10T02:50:13.273Z,12.43
2018-04-10T02:51:13.235Z,12.41
2018-04-10T02:52:13.284Z,12.40
2018-04-10T02:53:32.022Z,12.40
2018-04-10T02:54:13.301Z,12.40
2018-04-10T02:55:13.310Z,12.39
2018-04-10T02:56:13.329Z,12.39
2018-04-10T02:57:13.340Z,12.37
2018-04-10T02:58:32.053Z,12.34
2018-04-10T02:59:13.344Z,12.33
2018-04-10T03:00:31.737Z,12.33
2018-04-10T03:01:13.489Z,12.34
2018-04-10T03:02:13.266Z,12.36
2018-04-10T03:03:13.405Z,12.36
2018-04-10T03:04:13.233Z,12.36
2018-04-10T03:05:13.281Z,12.36
2018-04-10T03:06:13.630Z,12.37
2018-04-10T03:07:13.225Z,12.37
2018-04-10T03:08:13.301Z,12.38
2018-04-10T03:09:13.426Z,12.38
2018-04-10T03:10:13.321Z,12.36
2018-04-10T03:11:13.346Z,12.35
2018-04-10T03:12:13.675Z,12.32
2018-04-10T03:13:13.253Z,12.30
2018-04-10T03:15:13.695Z,12.28
2018-04-10T03:16:13.233Z,12.27
2018-04-10T03:17:13.973Z,12.29
2018-04-10T03:18:13.230Z,12.27
2018-04-10T03:19:13.269Z,12.26
2018-04-10T03:20:13.276Z,12.25
2018-04-10T03:21:13.236Z,12.23
2018-04-10T03:22:15.968Z,12.24
2018-04-10T03:23:13.616Z,12.23
2018-04-10T03:24:13.305Z,12.23
2018-04-10T03:25:13.241Z,12.24
2018-04-10T03:26:13.233Z,12.23
2018-04-10T03:27:13.439Z,12.23
2018-04-10T03:28:13.837Z,12.20
2018-04-10T03:29:14.602Z,12.19
2018-04-10T03:30:13.457Z,12.18
2018-04-10T03:31:13.355Z,12.15
2018-04-10T03:32:13.456Z,12.13
2018-04-10T03:33:13.273Z,12.14
2018-04-10T03:34:13.278Z,12.12
2018-04-10T03:35:13.251Z,12.14
2018-04-10T03:36:13.280Z,12.13
2018-04-10T03:37:13.306Z,12.13
2018-04-10T03:38:13.310Z,12.14
2018-04-10T03:39:13.363Z,12.15
2018-04-10T03:40:13.310Z,12.16
2018-04-10T03:41:13.253Z,12.14
2018-04-10T03:42:13.267Z,12.16
2018-04-10T03:43:13.339Z,12.16
2018-04-10T03:44:13.342Z,12.17
2018-04-10T03:45:13.353Z,12.18
2018-04-10T03:46:13.340Z,12.19
2018-04-10T03:47:13.361Z,12.19
2018-04-10T03:48:13.441Z,12.17
2018-04-10T03:49:13.389Z,12.15
2018-04-10T03:50:13.279Z,12.13
2018-04-10T03:51:13.285Z,12.12
2018-04-10T03:52:14.070Z,12.13
2018-04-10T03:53:13.304Z,12.13
2018-04-10T03:54:13.306Z,12.13
2018-04-10T03:55:13.326Z,12.11
2018-04-10T03:56:14.138Z,12.12
2018-04-10T03:57:13.265Z,12.09
2018-04-10T03:58:13.324Z,12.10
2018-04-10T03:59:13.247Z,12.10
2018-04-10T04:00:31.781Z,12.11
2018-04-10T04:01:13.366Z,12.10
2018-04-10T04:02:13.374Z,12.10
2018-04-10T04:03:32.117Z,12.09
2018-04-10T04:04:13.273Z,12.11
2018-04-10T04:05:13.341Z,12.10
2018-04-10T04:06:13.396Z,12.08
2018-04-10T04:07:13.301Z,12.05
2018-04-10T04:08:13.313Z,12.04
2018-04-10T04:09:13.257Z,12.05
2018-04-10T04:10:13.269Z,12.06
2018-04-10T04:11:13.310Z,12.08
2018-04-10T04:12:13.259Z,12.10
2018-04-10T04:13:13.342Z,12.12
2018-04-10T04:14:13.305Z,12.13
2018-04-10T04:15:13.456Z,12.15
2018-04-10T04:16:14.169Z,12.15
2018-04-10T04:17:13.382Z,12.16
2018-04-10T04:18:15.260Z,12.16
2018-04-10T04:19:13.262Z,12.17
2018-04-10T04:20:13.901Z,12.17
2018-04-10T04:21:13.295Z,12.18
2018-04-10T04:22:13.302Z,12.18
2018-04-10T04:23:13.402Z,12.16
2018-04-10T04:25:13.448Z,12.17
2018-04-10T04:26:13.570Z,12.19
2018-04-10T04:27:14.098Z,12.20
2018-04-10T04:28:13.285Z,12.23
2018-04-10T04:29:13.278Z,12.23
2018-04-10T04:30:13.274Z,12.24
2018-04-10T04:31:13.366Z,12.25
2018-04-10T04:32:13.382Z,12.25
2018-04-10T04:33:13.365Z,12.26
2018-04-10T04:34:13.318Z,12.28
2018-04-10T04:35:16.542Z,12.27
2018-04-10T04:36:13.274Z,12.29
2018-04-10T04:37:13.275Z,12.31
2018-04-10T04:38:13.291Z,12.30
2018-04-10T04:39:13.302Z,12.30
2018-04-10T04:40:13.286Z,12.29
2018-04-10T04:41:13.325Z,12.29
2018-04-10T04:42:13.354Z,12.31
2018-04-10T04:43:13.397Z,12.32
2018-04-10T04:44:13.453Z,12.34
2018-04-10T04:45:13.361Z,12.34
2018-04-10T04:46:13.273Z,12.37
2018-04-10T04:47:13.373Z,12.38
2018-04-10T04:48:14.397Z,12.39
2018-04-10T04:49:13.351Z,12.41
2018-04-10T04:50:13.288Z,12.41
2018-04-10T04:51:13.300Z,12.43
2018-04-10T04:52:13.318Z,12.45
2018-04-10T04:53:13.422Z,12.46
2018-04-10T04:54:13.322Z,12.48
2018-04-10T04:55:13.334Z,12.50
2018-04-10T04:56:13.326Z,12.51
2018-04-10T04:57:13.364Z,12.53
2018-04-10T04:58:13.488Z,12.54
2018-04-10T04:59:13.773Z,12.54
2018-04-10T05:00:31.896Z,12.54
2018-04-10T05:01:13.475Z,12.54
2018-04-10T05:02:13.478Z,12.52
2018-04-10T05:04:21.276Z,12.53
2018-04-10T05:05:21.398Z,12.53
2018-04-10T05:06:21.294Z,12.53
2018-04-10T05:07:21.293Z,12.53
2018-04-10T05:08:22.381Z,12.54
2018-04-10T05:09:21.282Z,12.56
2018-04-10T05:10:21.317Z,12.58
2018-04-10T05:11:21.426Z,12.61
2018-04-10T05:12:24.004Z,12.65
2018-04-10T05:13:22.728Z,12.68
2018-04-10T05:14:21.341Z,12.71
2018-04-10T05:15:21.407Z,12.71
2018-04-10T05:16:41.238Z,12.72
2018-04-10T05:17:21.474Z,12.73
2018-04-10T05:18:21.362Z,12.76
2018-04-10T05:19:21.388Z,12.78
2018-04-10T05:20:21.477Z,12.80
2018-04-10T05:21:21.420Z,12.81
2018-04-10T05:24:02.581Z,12.82
2018-04-10T05:24:21.691Z,12.83
2018-04-10T05:25:21.409Z,12.83
2018-04-10T05:26:21.526Z,12.85
2018-04-10T05:27:21.533Z,12.86
2018-04-10T05:28:21.313Z,12.90
2018-04-10T05:29:21.412Z,12.92
2018-04-10T05:30:21.350Z,12.97
2018-04-10T05:31:21.374Z,12.99
2018-04-10T05:32:21.497Z,13.03
2018-04-10T05:33:21.370Z,13.07
2018-04-10T05:34:21.370Z,13.07
2018-04-10T05:35:21.370Z,13.09
2018-04-10T05:36:21.327Z,13.12
2018-04-10T05:37:21.425Z,13.13
2018-04-10T05:38:21.413Z,13.14
2018-04-10T05:39:21.321Z,13.17
2018-04-10T05:40:21.417Z,13.18
2018-04-10T05:41:21.297Z,13.15
2018-04-10T05:42:21.339Z,13.10
2018-04-10T05:43:21.426Z,13.08
2018-04-10T05:44:21.345Z,13.07
2018-04-10T05:45:21.341Z,13.08
2018-04-10T05:46:21.472Z,13.11
2018-04-10T05:47:21.348Z,13.12
2018-04-10T05:48:21.373Z,13.12
2018-04-10T05:49:21.409Z,13.13
2018-04-10T05:50:21.400Z,13.13
2018-04-10T05:51:21.392Z,13.14
2018-04-10T05:52:21.378Z,13.16
2018-04-10T05:53:21.407Z,13.17
2018-04-10T05:54:21.426Z,13.18
2018-04-10T05:55:21.378Z,13.19
2018-04-10T05:56:21.318Z,13.19
2018-04-10T05:57:21.426Z,13.18
2018-04-10T05:58:21.441Z,13.14
2018-04-10T05:59:21.330Z,13.12
2018-04-10T06:00:44.284Z,13.09
2018-04-10T06:01:21.461Z,13.07
2018-04-10T06:02:21.359Z,13.01
2018-04-10T06:03:40.480Z,12.96
2018-04-10T06:04:21.373Z,12.95
2018-04-10T06:05:21.376Z,12.92
2018-04-10T06:07:33.450Z,12.91
2018-04-10T06:08:33.524Z,12.93
2018-04-10T06:09:33.589Z,12.92
2018-04-10T06:10:33.496Z,12.93
2018-04-10T06:11:34.433Z,12.90
2018-04-10T06:12:33.509Z,12.88
2018-04-10T06:13:33.524Z,12.86
2018-04-10T06:14:33.626Z,12.84
2018-04-10T06:15:33.536Z,12.82
2018-04-10T06:16:33.678Z,12.81
2018-04-10T06:17:33.541Z,12.81
2018-04-10T06:18:33.662Z,12.80
2018-04-10T06:19:33.589Z,12.81
2018-04-10T06:20:33.704Z,12.82
2018-04-10T06:21:33.918Z,12.82
2018-04-10T06:22:33.465Z,12.82
2018-04-10T06:23:53.434Z,12.82
2018-04-10T06:24:33.499Z,12.83
2018-04-10T06:25:33.497Z,12.86
2018-04-10T06:26:33.512Z,12.89
2018-04-10T06:27:33.525Z,12.89
2018-04-10T06:28:33.523Z,12.89
2018-04-10T06:29:33.524Z,12.91
2018-04-10T06:30:33.533Z,12.91
2018-04-10T06:31:33.547Z,12.89
2018-04-10T06:32:33.475Z,12.87
2018-04-10T06:33:33.770Z,12.88
2018-04-10T06:34:33.603Z,12.85
2018-04-10T06:35:33.695Z,12.84
2018-04-10T06:36:33.583Z,12.82
2018-04-10T06:37:33.494Z,12.83
2018-04-10T06:38:33.654Z,12.85
2018-04-10T06:39:33.500Z,12.86
2018-04-10T06:40:33.523Z,12.86
2018-04-10T06:41:33.537Z,12.86
2018-04-10T06:42:33.491Z,12.83
2018-04-10T06:43:33.514Z,12.84
2018-04-10T06:44:33.534Z,12.83
2018-04-10T06:45:33.581Z,12.83
2018-04-10T06:46:33.546Z,12.81
2018-04-10T06:47:33.535Z,12.81
2018-04-10T06:48:33.665Z,12.82
2018-04-10T06:49:33.569Z,12.85
2018-04-10T06:50:33.597Z,12.87
2018-04-10T06:51:33.488Z,12.87
2018-04-10T06:52:33.613Z,12.85
2018-04-10T06:53:33.634Z,12.82
2018-04-10T06:54:33.559Z,12.81
2018-04-10T06:55:52.368Z,12.80
2018-04-10T06:56:34.804Z,12.81
2018-04-10T06:58:52.174Z,12.83
2018-04-10T06:59:33.566Z,12.83
2018-04-10T07:00:33.550Z,12.81
2018-04-10T07:01:33.557Z,12.79
2018-04-10T07:02:34.163Z,12.78
2018-04-10T07:03:53.612Z,12.82
2018-04-10T07:04:33.613Z,12.85
2018-04-10T07:05:33.517Z,12.89
2018-04-10T07:06:52.631Z,12.97
2018-04-10T07:07:33.709Z,13.00
2018-04-10T07:08:33.607Z,12.99
2018-04-10T07:09:33.754Z,12.99
2018-04-10T07:10:33.797Z,12.98
2018-04-10T07:11:33.642Z,12.96
2018-04-10T07:12:33.527Z,12.97
2018-04-10T07:13:34.059Z,13.01
2018-04-10T07:14:33.529Z,13.02
2018-04-10T07:15:33.545Z,13.02
2018-04-10T07:16:33.558Z,13.01
2018-04-10T07:17:33.557Z,13.02
2018-04-10T07:18:33.569Z,13.03
2018-04-10T07:19:33.605Z,13.05
2018-04-10T07:20:33.683Z,13.07
2018-04-10T07:21:33.497Z,13.08
2018-04-10T07:22:33.602Z,13.08
2018-04-10T07:23:33.594Z,13.11
2018-04-10T07:24:33.613Z,13.13
2018-04-10T07:25:33.615Z,13.08
2018-04-10T07:26:33.497Z,13.06
2018-04-10T07:27:33.638Z,13.09
2018-04-10T07:28:33.516Z,13.08
2018-04-10T07:29:33.522Z,13.10
2018-04-10T07:30:33.499Z,13.03
2018-04-10T07:31:33.523Z,13.04
2018-04-10T07:32:33.559Z,13.02
2018-04-10T07:33:33.856Z,12.99
2018-04-10T07:34:33.582Z,12.91
2018-04-10T07:35:33.522Z,12.95
2018-04-10T07:37:33.626Z,12.90
2018-04-10T07:38:33.600Z,12.84
2018-04-10T07:40:40.478Z,12.89
2018-04-10T07:41:40.586Z,12.91
2018-04-10T07:42:40.592Z,13.00
2018-04-10T07:43:40.381Z,13.06
2018-04-10T07:44:40.392Z,13.02
2018-04-10T07:45:40.398Z,12.99
2018-04-10T07:46:40.451Z,13.03
2018-04-10T07:47:40.432Z,13.20
2018-04-10T07:48:40.436Z,13.34
2018-04-10T07:49:41.722Z,13.33
2018-04-10T07:50:40.441Z,13.29
2018-04-10T07:51:40.455Z,13.26
2018-04-10T07:52:40.495Z,13.27
2018-04-10T07:53:40.489Z,13.36
2018-04-10T07:54:40.413Z,13.41
2018-04-10T07:55:40.502Z,13.43
2018-04-10T07:56:40.498Z,13.41
2018-04-10T07:57:40.498Z,13.43
2018-04-10T07:58:40.489Z,13.38
2018-04-10T07:59:40.606Z,13.34
2018-04-10T08:00:40.565Z,13.31
2018-04-10T08:01:40.418Z,13.37
2018-04-10T08:02:40.405Z,13.44
2018-04-10T08:03:40.438Z,13.47
2018-04-10T08:04:40.550Z,13.51
2018-04-10T08:05:40.443Z,13.57
2018-04-10T08:06:40.445Z,13.53
2018-04-10T08:07:40.449Z,13.56
2018-04-10T08:08:40.409Z,13.59
2018-04-10T08:09:40.572Z,13.72
2018-04-10T08:10:40.382Z,13.75
2018-04-10T08:11:40.532Z,13.84
2018-04-10T08:12:40.399Z,13.90
2018-04-10T08:13:40.430Z,13.97
2018-04-10T08:14:40.419Z,14.08
2018-04-10T08:15:40.515Z,14.17
2018-04-10T08:16:40.419Z,14.34
2018-04-10T08:17:40.417Z,14.39
2018-04-10T08:18:40.425Z,14.43
2018-04-10T08:19:40.398Z,14.46
2018-04-10T08:20:40.438Z,14.48
2018-04-10T08:21:40.750Z,14.49
2018-04-10T08:22:40.879Z,14.58
2018-04-10T08:24:05.866Z,14.76
2018-04-10T08:24:40.751Z,14.83
2018-04-10T08:25:40.587Z,14.88
2018-04-10T08:26:40.402Z,14.77
2018-04-10T08:27:40.435Z,14.81
2018-04-10T08:28:40.442Z,14.81
2018-04-10T08:29:40.496Z,14.84
2018-04-10T08:30:40.515Z,14.95
2018-04-10T08:31:40.514Z,14.97
2018-04-10T08:32:40.523Z,15.04
2018-04-10T08:33:40.417Z,15.00
2018-04-10T08:34:40.438Z,14.98
2018-04-10T08:35:40.450Z,14.94
2018-04-10T08:36:40.454Z,15.02
2018-04-10T08:37:40.465Z,15.03
2018-04-10T08:38:40.479Z,14.96
2018-04-10T08:39:59.386Z,14.91
2018-04-10T08:40:40.432Z,14.98
2018-04-10T08:41:40.567Z,15.00
2018-04-10T08:42:40.483Z,14.95
2018-04-10T08:43:41.004Z,15.14
2018-04-10T08:44:40.502Z,15.19
2018-04-10T08:45:40.505Z,15.10
2018-04-10T08:46:40.520Z,15.04
2018-04-10T08:47:40.417Z,14.91
2018-04-10T08:48:40.432Z,14.92
2018-04-10T08:49:40.546Z,14.91
2018-04-10T08:50:40.450Z,14.94
2018-04-10T08:51:40.446Z,14.99
2018-04-10T08:52:40.446Z,15.18
2018-04-10T08:53:40.464Z,15.15
2018-04-10T08:54:40.432Z,15.08
2018-04-10T08:55:40.469Z,15.12
2018-04-10T08:56:40.487Z,15.12
2018-04-10T08:57:40.486Z,15.11
2018-04-10T08:58:40.494Z,15.21
2018-04-10T08:59:40.405Z,15.29
2018-04-10T09:00:40.501Z,15.36
2018-04-10T09:01:40.422Z,15.44
2018-04-10T09:02:40.563Z,15.54
2018-04-10T09:03:40.410Z,15.49
2018-04-10T09:04:40.429Z,15.41
2018-04-10T09:05:40.441Z,15.43
2018-04-10T09:06:40.442Z,15.40
2018-04-10T09:07:40.901Z,15.26
2018-04-10T09:08:40.405Z,15.18
2018-04-10T09:10:58.594Z,15.05
2018-04-10T09:11:58.614Z,15.14
2018-04-10T09:12:58.577Z,15.14
2018-04-10T09:13:58.612Z,15.19
2018-04-10T09:14:58.735Z,15.21
2018-04-10T09:17:59.754Z,15.47
2018-04-10T09:18:59.578Z,15.49
2018-04-10T09:19:59.493Z,15.49
2018-04-10T09:20:59.491Z,15.49
2018-04-10T09:21:59.501Z,15.54
2018-04-10T09:22:59.519Z,15.65
2018-04-10T09:23:59.518Z,15.76
2018-04-10T09:24:59.523Z,15.82
2018-04-10T09:25:59.522Z,15.82
2018-04-10T09:26:59.536Z,15.91
2018-04-10T09:27:59.543Z,15.78
2018-04-10T09:28:59.557Z,15.85
2018-04-10T09:29:59.571Z,15.86
2018-04-10T09:30:59.502Z,15.89
2018-04-10T09:32:19.282Z,15.95
2018-04-10T09:32:59.610Z,15.97
2018-04-10T09:33:59.577Z,15.94
2018-04-10T09:34:59.517Z,15.93
2018-04-10T09:35:59.500Z,15.88
2018-04-10T09:37:18.206Z,15.78
2018-04-10T09:37:59.477Z,15.76
2018-04-10T09:38:59.475Z,15.74
2018-04-10T09:39:59.678Z,15.88
2018-04-10T09:40:59.560Z,16.00
2018-04-10T09:41:59.643Z,16.02
2018-04-10T09:42:59.863Z,15.99
2018-04-10T09:43:59.650Z,15.97
2018-04-10T09:44:59.562Z,15.93
2018-04-10T09:45:59.767Z,15.92
2018-04-10T09:46:59.565Z,15.88
2018-04-10T09:47:59.573Z,15.89
2018-04-10T09:48:59.595Z,15.82
2018-04-10T09:49:59.602Z,15.84
2018-04-10T09:50:59.590Z,15.90
2018-04-10T09:51:59.789Z,15.95
2018-04-10T09:53:41.053Z,15.92
2018-04-10T09:53:59.642Z,15.90
2018-04-10T09:54:59.535Z,15.77
2018-04-10T09:55:59.537Z,15.74
2018-04-10T09:56:59.649Z,15.74
2018-04-10T09:57:59.565Z,15.79
2018-04-10T09:59:19.447Z,15.85
2018-04-10T09:59:59.506Z,15.93
2018-04-10T10:00:59.557Z,16.04
2018-04-10T10:02:59.594Z,16.33
2018-04-10T10:03:59.473Z,16.34
2018-04-10T10:04:59.591Z,16.30
2018-04-10T10:05:59.598Z,16.22
2018-04-10T10:06:59.520Z,16.20
2018-04-10T10:07:59.538Z,16.23
2018-04-10T10:08:59.643Z,16.26
2018-04-10T10:10:20.729Z,16.41
2018-04-10T10:10:59.481Z,16.47
2018-04-10T10:11:59.482Z,16.50
2018-04-10T10:12:59.551Z,16.60
2018-04-10T10:13:59.559Z,16.82
2018-04-10T10:14:59.708Z,16.87
2018-04-10T10:15:59.518Z,16.95
2018-04-10T10:16:59.570Z,16.96
2018-04-10T10:17:59.721Z,16.97
2018-04-10T10:18:59.494Z,16.92
2018-04-10T10:19:59.496Z,17.04
2018-04-10T10:20:59.716Z,17.06
2018-04-10T10:21:59.610Z,17.01
2018-04-10T10:22:59.628Z,17.03
2018-04-10T10:23:59.522Z,17.01
2018-04-10T10:24:59.569Z,16.99
2018-04-10T10:25:59.591Z,16.87
2018-04-10T10:26:59.536Z,16.73
2018-04-10T10:27:59.652Z,16.78
2018-04-10T10:28:59.485Z,16.84
2018-04-10T10:32:10.147Z,16.55
2018-04-10T10:34:52.710Z,16.44
2018-04-10T10:35:39.025Z,16.35
2018-04-10T10:36:39.046Z,16.41
2018-04-10T10:37:38.910Z,16.40
2018-04-10T10:38:38.918Z,16.45
2018-04-10T10:39:39.034Z,16.48
2018-04-10T10:40:38.932Z,16.61
2018-04-10T10:41:38.971Z,16.64
2018-04-10T10:42:38.962Z,16.67
2018-04-10T10:43:38.978Z,16.53
2018-04-10T10:44:38.966Z,16.47
2018-04-10T10:45:39.090Z,16.47
2018-04-10T10:46:38.929Z,16.52
2018-04-10T10:47:38.935Z,16.62
2018-04-10T10:48:38.934Z,16.70
2018-04-10T10:49:39.018Z,16.78
2018-04-10T10:50:39.011Z,16.95
2018-04-10T10:51:38.930Z,17.03
2018-04-10T10:52:39.139Z,17.06
2018-04-10T10:53:39.149Z,17.10
2018-04-10T10:54:39.037Z,17.06
2018-04-10T10:55:39.053Z,17.08
2018-04-10T10:56:38.951Z,17.12
2018-04-10T10:57:39.297Z,17.08
2018-04-10T10:58:38.942Z,17.17
2018-04-10T10:59:38.991Z,17.17
2018-04-10T11:00:38.956Z,17.21
2018-04-10T11:01:38.942Z,17.34
2018-04-10T11:02:39.005Z,17.31
2018-04-10T11:03:39.114Z,17.22
2018-04-10T11:04:38.976Z,17.31
2018-04-10T11:05:39.134Z,17.44
2018-04-10T11:06:39.791Z,17.53
2018-04-10T11:07:39.040Z,17.44
2018-04-10T11:08:39.033Z,17.25
2018-04-10T11:09:38.945Z,17.13
2018-04-10T11:10:39.674Z,17.16
2018-04-10T11:11:39.068Z,17.29
2018-04-10T11:12:39.084Z,17.41
2018-04-10T11:13:38.954Z,17.44
2018-04-10T11:14:38.974Z,17.32
2018-04-10T11:15:39.090Z,17.23
2018-04-10T11:16:39.092Z,17.22
2018-04-10T11:17:41.073Z,17.23
2018-04-10T11:19:57.286Z,17.17
2018-04-10T11:21:38.884Z,17.02
2018-04-10T11:22:25.677Z,16.94
2018-04-10T11:23:25.882Z,16.91
2018-04-10T11:24:44.635Z,16.90
2018-04-10T11:25:25.651Z,16.88
2018-04-10T11:26:26.094Z,16.91
2018-04-10T11:27:25.663Z,16.83
2018-04-10T11:28:25.713Z,16.71
2018-04-10T11:29:25.656Z,16.60
2018-04-10T11:30:25.794Z,16.51
2018-04-10T11:31:25.887Z,16.47
2018-04-10T11:32:26.537Z,16.49
2018-04-10T11:33:25.978Z,16.55
2018-04-10T11:34:25.926Z,16.55
2018-04-10T11:35:25.666Z,16.60
2018-04-10T11:36:25.735Z,16.64
2018-04-10T11:37:25.825Z,16.65
2018-04-10T11:38:25.739Z,16.64
2018-04-10T11:39:25.618Z,16.67
2018-04-10T11:40:25.635Z,16.76
2018-04-10T11:41:25.755Z,16.87
2018-04-10T11:42:25.757Z,16.86
2018-04-10T11:43:25.762Z,16.83
2018-04-10T11:44:25.669Z,16.85
2018-04-10T11:45:25.781Z,16.84
2018-04-10T11:46:25.797Z,16.83
2018-04-10T11:47:25.732Z,16.81
2018-04-10T11:48:26.111Z,16.77
2018-04-10T11:49:25.818Z,16.73
2018-04-10T11:50:25.723Z,16.74
2018-04-10T11:51:25.822Z,16.63
2018-04-10T11:52:25.834Z,16.57
2018-04-10T11:53:25.843Z,16.44
2018-04-10T11:54:25.747Z,16.33
2018-04-10T11:55:26.494Z,16.31
2018-04-10T11:56:25.753Z,16.31
2018-04-10T11:58:26.570Z,16.18
2018-04-10T11:59:25.722Z,16.10
2018-04-10T12:00:25.685Z,16.04
2018-04-10T12:01:25.686Z,16.01
2018-04-10T12:02:25.690Z,15.95
2018-04-10T12:03:25.701Z,16.00
2018-04-10T12:04:25.805Z,16.06
2018-04-10T12:05:25.630Z,16.13
2018-04-10T12:06:25.659Z,16.24
2018-04-10T12:07:25.716Z,16.25
2018-04-10T12:08:25.734Z,16.28
2018-04-10T12:09:25.733Z,16.22
2018-04-10T12:10:47.167Z,16.33
2018-04-10T12:11:25.875Z,16.42
2018-04-10T12:12:26.555Z,16.65
2018-04-10T12:13:25.688Z,16.93
2018-04-10T12:14:25.823Z,17.08
2018-04-10T12:15:25.730Z,17.11
2018-04-10T12:16:25.777Z,17.19
2018-04-10T12:17:25.681Z,17.36
2018-04-10T12:19:57.386Z,17.64
2018-04-10T12:20:57.175Z,17.83
2018-04-10T12:21:57.170Z,17.81
2018-04-10T12:22:57.298Z,17.75
2018-04-10T12:23:57.280Z,17.79
2018-04-10T12:24:57.191Z,17.63
2018-04-10T12:25:57.200Z,17.54
2018-04-10T12:26:57.192Z,17.54
2018-04-10T12:27:57.167Z,17.58
2018-04-10T12:28:57.213Z,17.75
2018-04-10T12:29:57.323Z,17.83
2018-04-10T12:30:57.183Z,17.89
2018-04-10T12:31:57.192Z,17.83
2018-04-10T12:35:00.488Z,17.87
2018-04-10T12:35:58.081Z,17.98
2018-04-10T12:36:58.060Z,18.02
2018-04-10T12:37:58.371Z,18.01
2018-04-10T12:38:58.107Z,17.94
2018-04-10T12:39:58.053Z,18.06
2018-04-10T12:40:58.119Z,18.06
2018-04-10T12:41:58.127Z,18.02
2018-04-10T12:42:58.164Z,18.02
2018-04-10T12:43:58.193Z,18.07
2018-04-10T12:45:00.396Z,18.03
2018-04-10T12:45:58.200Z,18.08
2018-04-10T12:46:58.161Z,18.11
2018-04-10T12:47:58.153Z,18.04
2018-04-10T12:48:58.180Z,17.93
2018-04-10T12:49:58.170Z,18.03
2018-04-10T12:50:58.182Z,18.12
2018-04-10T12:51:58.091Z,18.07
2018-04-10T12:52:58.096Z,18.07
2018-04-10T12:53:58.198Z,17.94
2018-04-10T12:54:58.423Z,17.94
2018-04-10T12:55:58.122Z,18.02
2018-04-10T12:56:58.123Z,18.08
2018-04-10T12:57:58.128Z,18.20
2018-04-10T12:58:58.238Z,18.27
2018-04-10T12:59:58.143Z,18.39
2018-04-10T13:00:58.163Z,18.46
2018-04-10T13:01:58.159Z,18.47
2018-04-10T13:02:58.170Z,18.35
2018-04-10T13:03:58.210Z,18.09
2018-04-10T13:04:58.098Z,18.07
2018-04-10T13:05:58.082Z,17.97
2018-04-10T13:06:58.075Z,17.89
2018-04-10T13:07:58.305Z,18.09
2018-04-10T13:08:58.219Z,18.24
2018-04-10T13:09:58.109Z,18.38
2018-04-10T13:10:58.254Z,18.70
2018-04-10T13:11:58.118Z,18.63
2018-04-10T13:12:58.068Z,18.55
2018-04-10T13:13:58.265Z,18.34
2018-04-10T13:14:58.081Z,18.23
2018-04-10T13:15:58.072Z,18.28
2018-04-10T13:16:58.164Z,18.46